Time;durP1;ratioP1;P1;durP2;ratioP2;P2;SDS_P1;SDS_P2;PMS_P1;PMS_P2;Temp;Humidity;BMP_temperature;BMP_pressure;BME280_temperature;BME280_humidity;BME280_pressure;Samples;Min_cycle;Max_cycle;Signal;HPM_P1;HPM_P2
2021/12/26 00:00:33;;;;;;;4.30;2.43;;;5.10;99.90;;;;;;5057303;28;20450;-57
2021/12/26 00:03:02;;;;;;;3.50;1.97;;;4.90;99.90;;;;;;5075182;28;20450;-56
2021/12/26 00:05:30;;;;;;;5.30;2.10;;;4.90;99.90;;;;;;5076776;28;20537;-55
2021/12/26 00:07:57;;;;;;;3.90;1.67;;;4.80;99.90;;;;;;5078483;28;20535;-58
2021/12/26 00:10:26;;;;;;;6.50;1.60;;;4.90;99.90;;;;;;5078140;28;20482;-55
2021/12/26 00:12:53;;;;;;;8.63;2.33;;;5.00;99.90;;;;;;5078741;28;20525;-57
2021/12/26 00:15:20;;;;;;;5.10;2.13;;;5.00;99.90;;;;;;5078269;28;20549;-58
2021/12/26 00:17:47;;;;;;;5.57;2.13;;;5.10;99.90;;;;;;5078566;28;20458;-58
2021/12/26 00:20:17;;;;;;;3.83;1.50;;;5.00;99.90;;;;;;5078341;28;20765;-58
2021/12/26 00:22:44;;;;;;;4.93;1.70;;;5.10;99.90;;;;;;5060254;28;20785;-57
2021/12/26 00:25:13;;;;;;;3.23;1.60;;;5.20;99.90;;;;;;5078156;28;20529;-57
2021/12/26 00:27:40;;;;;;;2.67;1.40;;;5.20;99.90;;;;;;5077353;28;20522;-58
2021/12/26 00:30:12;;;;;;;6.10;2.27;;;5.10;99.90;;;;;;5076965;28;20490;-57
2021/12/26 00:32:40;;;;;;;5.20;2.50;;;5.10;99.90;;;;;;5077570;28;20453;-56
2021/12/26 00:35:07;;;;;;;3.43;1.17;;;5.10;99.90;;;;;;5077126;28;20557;-58
2021/12/26 00:37:36;;;;;;;5.27;1.70;;;5.20;99.90;;;;;;5077752;28;20478;-57
2021/12/26 00:40:05;;;;;;;4.30;1.43;;;5.20;99.90;;;;;;5077773;28;20454;-58
2021/12/26 00:42:31;;;;;;;4.23;1.57;;;5.30;99.90;;;;;;5078155;28;20485;-56
2021/12/26 00:44:58;;;;;;;3.37;1.73;;;5.30;99.90;;;;;;5078118;28;20548;-57
2021/12/26 00:47:29;;;;;;;6.20;1.80;;;5.20;99.90;;;;;;5078521;28;20517;-57
2021/12/26 00:49:56;;;;;;;3.90;1.53;;;5.20;99.90;;;;;;5078011;28;20454;-57
2021/12/26 00:52:23;;;;;;;4.47;1.87;;;5.20;99.90;;;;;;5078226;28;20557;-57
2021/12/26 00:54:51;;;;;;;9.10;2.93;;;5.30;99.90;;;;;;5077382;28;20443;-58
2021/12/26 00:57:18;;;;;;;3.80;1.40;;;5.20;99.90;;;;;;5077087;28;20513;-57
2021/12/26 00:59:45;;;;;;;3.47;1.43;;;5.10;99.90;;;;;;5076812;28;20851;-58
2021/12/26 01:02:12;;;;;;;3.17;1.37;;;4.90;99.90;;;;;;5077587;28;20547;-58
2021/12/26 01:04:40;;;;;;;4.90;1.20;;;4.90;99.90;;;;;;5077477;28;20939;-57
2021/12/26 01:07:15;;;;;;;3.13;1.07;;;4.90;99.90;;;;;;5076681;28;20573;-56
2021/12/26 01:09:49;;;;;;;3.90;1.20;;;5.00;99.90;;;;;;5076093;28;20460;-57
2021/12/26 01:12:18;;;;;;;4.80;1.40;;;5.00;99.90;;;;;;5078224;28;20464;-57
2021/12/26 01:14:53;;;;;;;5.47;2.67;;;5.10;99.90;;;;;;5075878;28;20499;-57
2021/12/26 01:17:23;;;;;;;1.97;1.00;;;5.10;99.90;;;;;;5075395;28;20470;-57
2021/12/26 01:19:52;;;;;;;5.33;1.70;;;5.00;99.90;;;;;;5075339;28;20450;-57
2021/12/26 01:22:21;;;;;;;3.10;1.13;;;5.00;99.90;;;;;;5075634;28;20443;-57
2021/12/26 01:24:55;;;;;;;3.70;1.80;;;4.80;99.90;;;;;;5074009;28;20880;-57
2021/12/26 01:27:23;;;;;;;4.33;1.50;;;4.80;99.90;;;;;;5074209;28;20482;-57
2021/12/26 01:29:53;;;;;;;3.53;1.13;;;4.90;99.90;;;;;;5073958;28;20537;-58
2021/12/26 01:32:21;;;;;;;3.30;1.47;;;4.80;99.90;;;;;;5074381;28;20866;-55
2021/12/26 01:34:48;;;;;;;2.47;1.00;;;4.70;99.90;;;;;;5074703;28;20478;-57
2021/12/26 01:37:16;;;;;;;2.60;1.10;;;4.50;99.90;;;;;;5074966;28;20735;-57
2021/12/26 01:39:43;;;;;;;3.10;1.00;;;4.40;99.90;;;;;;5076691;28;20529;-57
2021/12/26 01:42:10;;;;;;;5.80;1.43;;;4.50;99.90;;;;;;5077232;28;20504;-58
2021/12/26 01:44:41;;;;;;;2.10;1.00;;;4.50;99.90;;;;;;5077148;28;20839;-57
2021/12/26 01:47:08;;;;;;;2.10;1.10;;;4.50;99.90;;;;;;5077012;28;20565;-57
2021/12/26 01:49:36;;;;;;;3.67;1.30;;;4.60;99.90;;;;;;5077148;28;20533;-57
2021/12/26 01:52:08;;;;;;;3.17;1.30;;;4.50;99.90;;;;;;5076593;28;20552;-57
2021/12/26 01:54:43;;;;;;;2.73;1.00;;;4.60;99.90;;;;;;5075671;28;20533;-57
2021/12/26 01:57:12;;;;;;;2.00;1.10;;;4.60;99.90;;;;;;5076834;28;20442;-57
2021/12/26 01:59:41;;;;;;;2.60;1.17;;;4.40;99.90;;;;;;5075147;28;20506;-56
2021/12/26 02:02:09;;;;;;;2.90;1.33;;;4.40;99.90;;;;;;5075987;28;20821;-56
2021/12/26 02:04:38;;;;;;;3.80;1.47;;;4.40;99.90;;;;;;5075992;28;20537;-54
2021/12/26 02:07:07;;;;;;;3.53;1.10;;;4.40;99.90;;;;;;5075029;28;20559;-57
2021/12/26 02:09:34;;;;;;;1.67;0.83;;;4.60;99.90;;;;;;5075157;28;20489;-58
2021/12/26 02:12:01;;;;;;;2.43;0.80;;;4.70;99.90;;;;;;5075103;28;20478;-57
2021/12/26 02:14:28;;;;;;;4.60;1.60;;;4.70;99.90;;;;;;5074714;28;20478;-57
2021/12/26 02:16:57;;;;;;;2.50;1.00;;;4.70;99.90;;;;;;5074885;28;20507;-58
2021/12/26 02:19:24;;;;;;;3.87;1.00;;;4.60;99.90;;;;;;5075482;28;20486;-57
2021/12/26 02:22:09;;;;;;;4.27;1.00;;;4.60;99.90;;;;;;5075839;28;20454;-57
2021/12/26 02:25:08;;;;;;;3.27;1.20;;;4.80;99.90;;;;;;5076178;28;20442;-57
2021/12/26 02:27:32;;;;;;;2.87;1.00;;;4.70;99.90;;;;;;5075759;28;20481;-56
2021/12/26 02:30:04;;;;;;;4.37;1.00;;;4.60;99.90;;;;;;5073914;28;20438;-55
2021/12/26 02:32:32;;;;;;;2.27;0.90;;;4.50;99.90;;;;;;5075313;28;20485;-57
2021/12/26 02:35:01;;;;;;;2.40;1.10;;;4.40;99.90;;;;;;5076325;28;20504;-57
2021/12/26 02:37:29;;;;;;;3.37;1.00;;;4.50;99.90;;;;;;5076484;28;20450;-57
2021/12/26 02:39:56;;;;;;;2.20;0.83;;;4.60;99.90;;;;;;5075957;28;20446;-57
2021/12/26 02:42:24;;;;;;;2.90;1.03;;;4.60;99.90;;;;;;5074746;28;20443;-55
2021/12/26 02:44:51;;;;;;;3.93;1.00;;;4.70;99.90;;;;;;5075802;28;20537;-57
2021/12/26 02:47:31;;;;;;;1.30;0.80;;;4.70;99.90;;;;;;5075941;28;20517;-56
2021/12/26 02:50:00;;;;;;;2.00;0.90;;;4.80;99.90;;;;;;5075833;28;20482;-55
2021/12/26 02:52:27;;;;;;;3.27;1.00;;;4.90;99.90;;;;;;5074672;28;20525;-57
2021/12/26 02:54:57;;;;;;;2.20;1.20;;;4.70;99.90;;;;;;5072952;28;20815;-57
2021/12/26 02:57:24;;;;;;;2.37;0.87;;;4.80;99.90;;;;;;5073084;28;20537;-55
2021/12/26 02:59:51;;;;;;;3.00;1.10;;;4.90;99.90;;;;;;5074456;28;20589;-58
2021/12/26 03:02:18;;;;;;;1.80;0.90;;;4.90;99.90;;;;;;5074400;28;20438;-57
2021/12/26 03:04:45;;;;;;;2.20;1.13;;;4.60;99.90;;;;;;5074423;28;20449;-56
2021/12/26 03:07:12;;;;;;;3.30;1.30;;;4.40;99.90;;;;;;5075868;28;20500;-56
2021/12/26 03:09:45;;;;;;;3.67;0.97;;;4.30;99.90;;;;;;5076320;28;20515;-55
2021/12/26 03:12:14;;;;;;;2.13;0.80;;;4.30;99.90;;;;;;5075809;28;20418;-58
2021/12/26 03:14:41;;;;;;;1.47;0.93;;;4.30;99.90;;;;;;5075550;28;20537;-58
2021/12/26 03:17:08;;;;;;;2.83;1.07;;;4.40;99.90;;;;;;5075776;28;20537;-57
2021/12/26 03:19:36;;;;;;;3.17;1.23;;;4.50;99.90;;;;;;5076270;28;20492;-58
2021/12/26 03:22:04;;;;;;;2.23;1.13;;;4.50;99.90;;;;;;5076100;28;20821;-58
2021/12/26 03:24:37;;;;;;;2.27;1.30;;;4.50;99.90;;;;;;5075847;28;20886;-59
2021/12/26 03:27:06;;;;;;;2.00;1.10;;;4.60;99.90;;;;;;5074637;28;20920;-58
2021/12/26 03:29:36;;;;;;;3.13;1.20;;;4.80;99.90;;;;;;5076274;28;20512;-58
2021/12/26 03:32:03;;;;;;;3.97;1.70;;;4.80;99.90;;;;;;5075895;28;20458;-58
2021/12/26 03:34:30;;;;;;;3.17;1.20;;;4.90;99.90;;;;;;5076087;28;20486;-57
2021/12/26 03:36:57;;;;;;;3.63;1.07;;;5.10;99.90;;;;;;5075763;28;20541;-57
2021/12/26 03:39:24;;;;;;;2.53;1.50;;;5.00;99.90;;;;;;5075388;28;20537;-57
2021/12/26 03:41:53;;;;;;;3.63;1.00;;;4.80;99.90;;;;;;5078470;28;20995;-55
2021/12/26 03:44:20;;;;;;;4.60;1.13;;;4.70;99.90;;;;;;5079220;28;20456;-57
2021/12/26 03:46:48;;;;;;;3.20;1.20;;;4.60;99.90;;;;;;5079713;28;20949;-58
2021/12/26 03:49:15;;;;;;;4.13;1.00;;;4.60;99.90;;;;;;5079376;28;21001;-56
2021/12/26 03:51:42;;;;;;;2.30;1.00;;;4.70;99.90;;;;;;5079576;28;20545;-56
2021/12/26 03:54:09;;;;;;;3.13;1.37;;;4.70;99.90;;;;;;5079037;28;20799;-56
2021/12/26 03:56:36;;;;;;;3.47;1.00;;;4.70;99.90;;;;;;5078511;28;20834;-56
2021/12/26 03:59:03;;;;;;;3.37;1.37;;;4.80;99.90;;;;;;5078515;28;20564;-56
2021/12/26 04:01:30;;;;;;;3.57;1.00;;;4.80;99.90;;;;;;5078352;28;20556;-56
2021/12/26 04:03:58;;;;;;;1.90;1.10;;;4.90;99.90;;;;;;5078405;28;20482;-56
2021/12/26 04:06:25;;;;;;;5.23;1.63;;;5.00;99.90;;;;;;5078269;28;20533;-58
2021/12/26 04:08:52;;;;;;;4.77;1.60;;;5.10;99.90;;;;;;5078147;28;20573;-56
2021/12/26 04:11:19;;;;;;;4.33;1.63;;;5.10;99.90;;;;;;5078165;28;20549;-55
2021/12/26 04:13:47;;;;;;;3.10;1.20;;;5.20;99.90;;;;;;5078274;28;20914;-60
2021/12/26 04:16:14;;;;;;;3.50;1.57;;;5.20;99.90;;;;;;5078366;28;20541;-57
2021/12/26 04:18:41;;;;;;;1.83;1.07;;;5.30;99.90;;;;;;5078105;28;20793;-56
2021/12/26 04:21:10;;;;;;;3.40;1.20;;;5.10;99.90;;;;;;5077881;28;20932;-57
2021/12/26 04:23:36;;;;;;;5.63;1.73;;;4.80;99.90;;;;;;5078183;28;20481;-57
2021/12/26 04:26:04;;;;;;;4.37;1.40;;;4.60;99.90;;;;;;5078062;28;20874;-56
2021/12/26 04:28:31;;;;;;;4.00;1.70;;;4.60;99.90;;;;;;5076958;28;20586;-56
2021/12/26 04:30:58;;;;;;;5.90;1.97;;;4.60;99.90;;;;;;5077269;28;20489;-57
2021/12/26 04:33:25;;;;;;;5.17;1.50;;;4.50;99.90;;;;;;5075395;28;20438;-57
2021/12/26 04:35:52;;;;;;;4.70;1.10;;;4.40;99.90;;;;;;5074542;28;20948;-55
2021/12/26 04:38:23;;;;;;;2.87;1.20;;;4.50;99.90;;;;;;5074713;28;20458;-57
2021/12/26 04:40:51;;;;;;;5.50;2.27;;;4.60;99.90;;;;;;5074533;28;20727;-57
2021/12/26 04:43:20;;;;;;;4.03;1.70;;;4.60;99.90;;;;;;5075750;28;20447;-56
2021/12/26 04:45:47;;;;;;;3.73;1.27;;;4.40;99.90;;;;;;5076163;28;20735;-56
2021/12/26 04:48:14;;;;;;;2.90;1.30;;;4.40;99.90;;;;;;5075998;28;20775;-58
2021/12/26 04:50:44;;;;;;;4.47;1.73;;;4.40;99.90;;;;;;5073398;28;20486;-55
2021/12/26 04:53:11;;;;;;;5.37;1.53;;;4.60;99.90;;;;;;5072514;28;20745;-56
2021/12/26 04:55:40;;;;;;;3.40;1.40;;;4.70;99.90;;;;;;5073849;28;20547;-56
2021/12/26 04:58:07;;;;;;;5.13;2.00;;;4.70;99.90;;;;;;5074053;28;20458;-57
2021/12/26 05:00:34;;;;;;;3.00;1.47;;;4.80;99.90;;;;;;5074220;28;20597;-55
2021/12/26 05:03:04;;;;;;;4.07;1.40;;;4.90;99.90;;;;;;5074425;28;20443;-57
2021/12/26 05:05:31;;;;;;;4.63;1.90;;;4.80;99.90;;;;;;5075260;28;20769;-56
2021/12/26 05:07:58;;;;;;;4.70;1.60;;;4.70;99.90;;;;;;5075307;28;20780;-57
2021/12/26 05:10:28;;;;;;;6.67;3.60;;;4.70;99.90;;;;;;5075964;28;20816;-56
2021/12/26 05:12:57;;;;;;;4.40;1.30;;;4.80;99.90;;;;;;5076701;28;20453;-57
2021/12/26 05:15:25;;;;;;;5.00;1.60;;;4.90;99.90;;;;;;5076834;28;20557;-57
2021/12/26 05:17:53;;;;;;;4.27;1.40;;;5.00;99.90;;;;;;5076208;28;20538;-57
2021/12/26 05:20:23;;;;;;;3.60;1.83;;;5.10;99.90;;;;;;5075148;28;20454;-57
2021/12/26 05:22:51;;;;;;;3.30;1.33;;;5.30;99.90;;;;;;5075422;28;20537;-55
2021/12/26 05:25:20;;;;;;;5.30;1.60;;;5.20;99.90;;;;;;5075278;28;20953;-56
2021/12/26 05:27:48;;;;;;;3.80;1.87;;;5.30;99.90;;;;;;5076475;28;20540;-56
2021/12/26 05:30:18;;;;;;;3.77;1.60;;;5.30;99.90;;;;;;5076745;28;20554;-57
2021/12/26 05:32:46;;;;;;;6.63;2.80;;;5.30;99.90;;;;;;5076161;28;20453;-57
2021/12/26 05:35:15;;;;;;;5.97;1.57;;;5.40;99.90;;;;;;5076446;28;20956;-57
2021/12/26 05:37:42;;;;;;;2.57;1.53;;;5.40;99.90;;;;;;5076543;28;20953;-56
2021/12/26 05:40:11;;;;;;;7.90;2.03;;;5.20;99.90;;;;;;5076297;28;20464;-57
2021/12/26 05:42:38;;;;;;;5.13;1.93;;;5.00;99.90;;;;;;5076456;28;20764;-55
2021/12/26 05:45:08;;;;;;;6.00;2.57;;;4.90;99.90;;;;;;5076296;28;20551;-57
2021/12/26 05:47:37;;;;;;;4.30;1.40;;;4.90;99.90;;;;;;5076037;28;21100;-56
2021/12/26 05:50:08;;;;;;;4.20;1.20;;;4.80;99.90;;;;;;5074421;28;20880;-55
2021/12/26 05:52:35;;;;;;;4.93;2.40;;;4.90;99.90;;;;;;5075006;28;20485;-54
2021/12/26 05:55:02;;;;;;;4.83;2.10;;;4.90;99.90;;;;;;5074536;28;20493;-55
2021/12/26 05:57:29;;;;;;;3.93;1.40;;;4.90;99.90;;;;;;5074367;28;20523;-56
2021/12/26 05:59:56;;;;;;;3.20;2.17;;;5.00;99.90;;;;;;5074785;28;20561;-57
2021/12/26 06:02:23;;;;;;;3.53;1.40;;;5.20;99.90;;;;;;5075200;28;20541;-57
2021/12/26 06:04:52;;;;;;;5.70;1.40;;;5.30;99.90;;;;;;5074897;28;20484;-55
2021/12/26 06:07:19;;;;;;;4.57;1.40;;;5.20;99.90;;;;;;5075824;28;20533;-57
2021/12/26 06:09:46;;;;;;;5.00;1.43;;;5.20;99.90;;;;;;5075843;28;20573;-57
2021/12/26 06:12:13;;;;;;;3.20;1.43;;;5.20;99.90;;;;;;5075999;28;20533;-56
2021/12/26 06:14:39;;;;;;;4.67;1.20;;;5.00;99.90;;;;;;5075728;28;20541;-55
2021/12/26 06:17:06;;;;;;;4.90;1.37;;;4.80;99.90;;;;;;5074998;28;20820;-57
2021/12/26 06:19:33;;;;;;;3.30;1.40;;;4.80;99.90;;;;;;5073658;28;20517;-57
2021/12/26 06:22:02;;;;;;;4.20;2.33;;;4.90;99.90;;;;;;5073555;28;20553;-55
2021/12/26 06:24:30;;;;;;;4.20;1.73;;;4.80;99.90;;;;;;5074035;28;20451;-57
2021/12/26 06:26:57;;;;;;;4.17;1.40;;;4.80;99.90;;;;;;5073847;28;20557;-57
2021/12/26 06:29:26;;;;;;;4.87;1.53;;;4.80;99.90;;;;;;5073544;28;20518;-56
2021/12/26 06:31:53;;;;;;;4.67;1.70;;;4.80;99.90;;;;;;5073335;28;20454;-56
2021/12/26 06:34:20;;;;;;;6.30;2.40;;;4.90;99.90;;;;;;5072891;28;20539;-57
2021/12/26 06:36:47;;;;;;;5.23;2.40;;;5.00;99.90;;;;;;5074097;28;20450;-57
2021/12/26 06:39:15;;;;;;;4.60;1.73;;;5.00;99.90;;;;;;5073966;28;20545;-57
2021/12/26 06:41:43;;;;;;;6.33;2.33;;;5.00;99.90;;;;;;5073888;28;20501;-56
2021/12/26 06:44:10;;;;;;;5.83;2.00;;;5.00;99.90;;;;;;5073836;28;20831;-57
2021/12/26 06:46:37;;;;;;;6.03;2.33;;;5.00;99.90;;;;;;5074642;28;20818;-56
2021/12/26 06:49:05;;;;;;;5.90;2.13;;;5.00;99.90;;;;;;5075279;28;20482;-57
2021/12/26 06:51:32;;;;;;;6.00;1.63;;;5.10;99.90;;;;;;5075321;28;20845;-54
2021/12/26 06:53:59;;;;;;;5.03;1.80;;;5.00;99.90;;;;;;5075154;28;20474;-56
2021/12/26 06:56:28;;;;;;;6.00;2.60;;;5.00;99.90;;;;;;5075855;28;20909;-57
2021/12/26 06:58:55;;;;;;;4.10;1.93;;;5.00;99.90;;;;;;5075470;28;20963;-57
2021/12/26 07:01:22;;;;;;;7.13;2.30;;;5.00;99.90;;;;;;5075057;28;20489;-57
2021/12/26 07:03:49;;;;;;;5.47;2.40;;;5.00;99.90;;;;;;5074379;28;20537;-54
2021/12/26 07:06:16;;;;;;;7.47;2.57;;;5.10;99.90;;;;;;5073927;28;20459;-55
2021/12/26 07:08:42;;;;;;;4.63;1.97;;;5.10;99.90;;;;;;5074112;28;20591;-57
2021/12/26 07:11:10;;;;;;;7.27;3.53;;;5.20;99.90;;;;;;5074630;28;20838;-55
2021/12/26 07:13:38;;;;;;;4.13;1.77;;;5.30;99.90;;;;;;5074404;28;20951;-57
2021/12/26 07:16:05;;;;;;;4.90;2.77;;;5.50;99.90;;;;;;5077229;28;20454;-56
2021/12/26 07:18:32;;;;;;;8.20;2.97;;;5.60;99.90;;;;;;5078431;28;20486;-55
2021/12/26 07:20:59;;;;;;;4.20;1.60;;;5.50;99.90;;;;;;5078799;28;20552;-56
2021/12/26 07:23:26;;;;;;;3.53;1.73;;;5.40;99.90;;;;;;5078456;28;20488;-57
2021/12/26 07:25:53;;;;;;;5.60;2.40;;;5.30;99.90;;;;;;5079446;28;20541;-57
2021/12/26 07:28:20;;;;;;;4.87;1.80;;;5.20;99.90;;;;;;5078994;28;20777;-57
2021/12/26 07:30:48;;;;;;;4.20;2.17;;;5.10;99.90;;;;;;5078963;28;20541;-56
2021/12/26 07:33:15;;;;;;;4.87;1.83;;;5.00;99.90;;;;;;5078773;28;20489;-56
2021/12/26 07:35:42;;;;;;;5.53;2.50;;;5.00;99.90;;;;;;5078070;28;20494;-57
2021/12/26 07:38:09;;;;;;;5.87;1.80;;;4.90;99.90;;;;;;5078382;28;20474;-57
2021/12/26 07:40:39;;;;;;;6.40;1.87;;;4.90;99.90;;;;;;5078705;28;20808;-57
2021/12/26 07:43:07;;;;;;;4.80;1.83;;;5.00;99.90;;;;;;5078221;28;20536;-56
2021/12/26 07:45:34;;;;;;;9.53;3.43;;;5.00;99.90;;;;;;5078640;28;20474;-56
2021/12/26 07:48:03;;;;;;;5.43;2.07;;;4.90;99.90;;;;;;5078260;28;20438;-57
2021/12/26 07:50:29;;;;;;;6.50;1.80;;;5.00;99.90;;;;;;5078348;28;20771;-56
2021/12/26 07:53:02;;;;;;;5.13;1.70;;;5.10;99.90;;;;;;5078277;28;20530;-56
2021/12/26 07:55:29;;;;;;;7.17;2.73;;;5.30;99.90;;;;;;5078588;28;20556;-57
2021/12/26 07:57:56;;;;;;;4.37;2.07;;;5.40;99.90;;;;;;5078248;28;20553;-57
2021/12/26 08:00:23;;;;;;;8.83;2.10;;;5.40;99.90;;;;;;5078142;28;20502;-56
2021/12/26 08:02:50;;;;;;;7.10;3.20;;;5.50;99.90;;;;;;5078193;28;20835;-56
2021/12/26 08:05:19;;;;;;;6.33;3.23;;;5.60;99.90;;;;;;5078157;28;20486;-57
2021/12/26 08:07:46;;;;;;;5.70;2.20;;;5.70;99.90;;;;;;5078629;28;20466;-57
2021/12/26 08:10:13;;;;;;;10.87;3.30;;;5.80;99.90;;;;;;5077583;28;20577;-56
2021/12/26 08:12:40;;;;;;;7.53;2.57;;;5.80;99.90;;;;;;5078384;28;20485;-57
2021/12/26 08:15:08;;;;;;;6.23;2.20;;;5.80;99.90;;;;;;5078077;28;20482;-57
2021/12/26 08:17:35;;;;;;;7.67;2.67;;;5.80;99.90;;;;;;5078096;28;20442;-58
2021/12/26 08:20:05;;;;;;;7.13;3.03;;;5.70;99.90;;;;;;5077712;28;20450;-57
2021/12/26 08:22:34;;;;;;;7.20;2.43;;;5.60;99.90;;;;;;5076830;28;20729;-57
2021/12/26 08:25:01;;;;;;;7.10;2.00;;;5.50;99.90;;;;;;5077732;28;20458;-57
2021/12/26 08:27:28;;;;;;;5.23;1.97;;;5.50;99.90;;;;;;5077416;28;20473;-54
2021/12/26 08:29:55;;;;;;;4.33;1.70;;;5.70;99.90;;;;;;5077542;28;20478;-54
2021/12/26 08:32:22;;;;;;;6.53;2.23;;;5.70;99.90;;;;;;5077932;28;20482;-54
2021/12/26 08:34:52;;;;;;;6.53;2.27;;;5.70;99.90;;;;;;5077270;28;20482;-56
2021/12/26 08:37:19;;;;;;;6.30;2.07;;;5.60;99.90;;;;;;5077194;28;20450;-57
2021/12/26 08:39:48;;;;;;;7.00;2.77;;;5.60;99.90;;;;;;5077464;28;20758;-54
2021/12/26 08:42:15;;;;;;;5.30;2.63;;;5.60;99.90;;;;;;5077639;28;20479;-55
2021/12/26 08:44:43;;;;;;;3.50;1.90;;;5.50;99.90;;;;;;5077494;28;20547;-56
2021/12/26 08:47:11;;;;;;;6.23;3.13;;;5.50;99.90;;;;;;5077025;28;20828;-57
2021/12/26 08:49:39;;;;;;;6.10;1.93;;;5.60;99.90;;;;;;5077316;28;20565;-57
2021/12/26 08:52:07;;;;;;;6.57;2.43;;;5.60;99.90;;;;;;5077557;28;20537;-57
2021/12/26 08:54:35;;;;;;;6.63;3.20;;;5.60;99.90;;;;;;5077421;28;20465;-57
2021/12/26 08:57:04;;;;;;;8.13;2.60;;;5.60;99.90;;;;;;5077552;28;20549;-57
2021/12/26 08:59:31;;;;;;;6.80;2.80;;;5.60;99.90;;;;;;5076484;28;20539;-57
2021/12/26 09:01:59;;;;;;;5.63;2.43;;;5.50;99.90;;;;;;5077004;28;20459;-57
2021/12/26 09:04:26;;;;;;;9.40;3.10;;;5.70;99.90;;;;;;5077295;28;20529;-56
2021/12/26 09:06:53;;;;;;;8.90;3.20;;;5.70;99.90;;;;;;5077082;28;20551;-57
2021/12/26 09:09:20;;;;;;;10.10;2.93;;;5.70;99.90;;;;;;5077082;28;20522;-57
2021/12/26 09:11:47;;;;;;;10.30;3.30;;;5.90;99.90;;;;;;5077458;28;20545;-57
2021/12/26 09:14:16;;;;;;;7.57;2.17;;;5.90;99.90;;;;;;5076800;28;20546;-57
2021/12/26 09:16:43;;;;;;;6.40;3.13;;;5.90;99.90;;;;;;5076892;28;20548;-57
2021/12/26 09:19:10;;;;;;;7.30;2.43;;;5.80;99.90;;;;;;5076598;28;20485;-57
2021/12/26 09:21:37;;;;;;;4.63;1.97;;;5.70;99.90;;;;;;5076857;28;20545;-56
2021/12/26 09:24:05;;;;;;;11.27;4.10;;;5.80;99.90;;;;;;5076435;28;20839;-58
2021/12/26 09:26:32;;;;;;;6.00;2.07;;;5.80;99.90;;;;;;5076975;28;20501;-57
2021/12/26 09:28:59;;;;;;;4.13;2.33;;;5.90;99.90;;;;;;5076516;28;20552;-57
2021/12/26 09:31:28;;;;;;;5.97;2.07;;;6.00;99.90;;;;;;5076006;28;21056;-55
2021/12/26 09:33:55;;;;;;;2.40;1.07;;;6.00;99.90;;;;;;5076317;28;20447;-57
2021/12/26 09:36:23;;;;;;;2.73;1.20;;;6.20;99.90;;;;;;5076436;28;20548;-58
2021/12/26 09:38:49;;;;;;;3.27;2.10;;;6.20;99.90;;;;;;5075051;28;20537;-58
2021/12/26 09:41:16;;;;;;;2.00;1.03;;;6.10;99.90;;;;;;5074957;28;20549;-58
2021/12/26 09:43:44;;;;;;;2.63;1.10;;;6.10;99.90;;;;;;5056550;28;20450;-57
2021/12/26 09:46:11;;;;;;;2.17;1.10;;;6.20;99.90;;;;;;5074952;28;20539;-57
2021/12/26 09:48:39;;;;;;;3.27;1.50;;;6.10;99.90;;;;;;5074728;28;20533;-56
2021/12/26 09:51:06;;;;;;;3.93;1.50;;;6.20;99.90;;;;;;5075531;28;20482;-57
2021/12/26 09:53:38;;;;;;;2.67;1.40;;;6.20;99.90;;;;;;5093028;28;20473;-56
2021/12/26 09:56:07;;;;;;;3.23;1.10;;;6.30;99.90;;;;;;5092939;28;20454;-54
2021/12/26 09:58:36;;;;;;;3.03;1.30;;;6.30;99.90;;;;;;5095063;28;20536;-54
2021/12/26 10:01:03;;;;;;;10.33;1.27;;;6.30;99.90;;;;;;5093984;28;20846;-57
2021/12/26 10:03:34;;;;;;;5.83;1.57;;;6.30;99.90;;;;;;5095073;28;20480;-56
2021/12/26 10:06:13;;;;;;;2.97;1.20;;;6.30;99.90;;;;;;5093773;28;20488;-55
2021/12/26 10:08:56;;;;;;;4.10;1.10;;;6.40;99.90;;;;;;5093851;28;20449;-56
2021/12/26 10:11:25;;;;;;;2.73;1.20;;;6.40;99.90;;;;;;5093339;28;20477;-54
2021/12/26 10:13:54;;;;;;;3.40;1.23;;;6.50;99.90;;;;;;5095350;28;20908;-57
2021/12/26 10:16:24;;;;;;;3.80;1.77;;;6.50;99.90;;;;;;5093250;28;20510;-55
2021/12/26 10:18:52;;;;;;;3.10;1.10;;;6.60;99.90;;;;;;5093707;28;20532;-54
2021/12/26 10:21:38;;;;;;;2.10;1.00;;;6.60;99.90;;;;;;5093292;28;20813;-53
2021/12/26 10:24:13;;;;;;;3.50;1.30;;;6.60;99.90;;;;;;5095283;28;20759;-56
2021/12/26 10:26:45;;;;;;;3.80;1.50;;;6.60;99.90;;;;;;5095905;28;20510;-55
2021/12/26 10:29:26;;;;;;;4.83;2.10;;;6.70;99.90;;;;;;5095582;28;20485;-52
2021/12/26 10:32:00;;;;;;;9.23;4.33;;;6.80;99.90;;;;;;5095062;28;20757;-54
2021/12/26 10:34:30;;;;;;;9.70;4.10;;;7.10;99.90;;;;;;5094761;28;20449;-54
2021/12/26 10:37:03;;;;;;;5.10;2.70;;;7.20;99.90;;;;;;5093950;28;20493;-55
2021/12/26 10:39:35;;;;;;;6.87;3.37;;;7.40;99.90;;;;;;5093352;28;22081;-55
2021/12/26 10:42:08;;;;;;;7.83;2.63;;;7.50;99.90;;;;;;5093620;28;20544;-55
2021/12/26 10:44:39;;;;;;;5.90;2.67;;;7.30;99.90;;;;;;5094252;28;20465;-55
2021/12/26 10:47:10;;;;;;;6.53;2.40;;;7.10;99.90;;;;;;5094231;28;20549;-53
2021/12/26 10:49:43;;;;;;;10.40;5.87;;;7.00;99.90;;;;;;5095000;28;20924;-52
2021/12/26 10:52:25;;;;;;;8.60;3.43;;;7.00;99.90;;;;;;5095251;28;20441;-56
2021/12/26 10:54:55;;;;;;;5.20;1.77;;;7.10;99.90;;;;;;5094697;28;20460;-53
2021/12/26 10:57:26;;;;;;;4.37;1.80;;;7.20;99.90;;;;;;5093658;28;20512;-52
2021/12/26 11:00:15;;;;;;;3.03;1.30;;;7.20;99.90;;;;;;5092386;28;20562;-53
2021/12/26 11:02:47;;;;;;;2.80;1.20;;;7.20;99.90;;;;;;5094170;28;20450;-54
2021/12/26 11:05:17;;;;;;;2.70;1.10;;;7.20;99.90;;;;;;5092994;28;20449;-52
2021/12/26 11:07:51;;;;;;;2.97;1.60;;;7.30;99.90;;;;;;5074155;28;20441;-53
2021/12/26 11:10:22;;;;;;;1.50;1.10;;;7.40;99.90;;;;;;5092591;28;20481;-53
2021/12/26 11:12:52;;;;;;;2.73;1.43;;;7.40;99.90;;;;;;5095178;28;20495;-54
2021/12/26 11:15:20;;;;;;;5.03;2.20;;;7.40;99.90;;;;;;5094964;28;20478;-53
2021/12/26 11:17:49;;;;;;;8.33;2.80;;;7.50;99.90;;;;;;5094554;28;20488;-53
2021/12/26 11:20:29;;;;;;;7.93;3.70;;;7.40;99.90;;;;;;5094255;28;20441;-52
2021/12/26 11:23:08;;;;;;;5.57;2.10;;;7.40;99.90;;;;;;5094665;28;20884;-55
2021/12/26 11:25:37;;;;;;;6.53;2.77;;;7.30;99.90;;;;;;5094652;28;20453;-53
2021/12/26 11:28:04;;;;;;;5.73;1.93;;;7.30;99.90;;;;;;5095086;28;20528;-52
2021/12/26 11:30:31;;;;;;;7.90;3.17;;;7.40;99.90;;;;;;5094877;28;20758;-55
2021/12/26 11:33:02;;;;;;;7.10;2.90;;;7.60;99.90;;;;;;5093992;28;20540;-54
2021/12/26 11:35:30;;;;;;;8.57;3.93;;;7.70;99.90;;;;;;5094212;28;20458;-52
2021/12/26 11:38:01;;;;;;;7.43;2.87;;;7.70;99.90;;;;;;5094133;28;20952;-51
2021/12/26 11:40:29;;;;;;;2.93;1.30;;;7.80;99.90;;;;;;5093595;28;20480;-55
2021/12/26 11:43:22;;;;;;;3.90;2.20;;;7.90;99.90;;;;;;5092543;28;20497;-52
2021/12/26 11:45:58;;;;;;;5.37;1.57;;;8.00;99.90;;;;;;5092135;28;20537;-52
2021/12/26 11:48:52;;;;;;;4.33;1.90;;;8.00;99.90;;;;;;5092931;28;20908;-50
2021/12/26 11:51:36;;;;;;;2.63;2.03;;;8.00;99.90;;;;;;5091049;28;20554;-54
2021/12/26 11:54:42;;;;;;;2.90;1.83;;;8.10;99.90;;;;;;5094065;28;20503;-54
2021/12/26 11:57:28;;;;;;;4.70;2.57;;;8.20;99.90;;;;;;5093304;28;20502;-53
2021/12/26 12:00:07;;;;;;;4.10;1.93;;;8.20;99.90;;;;;;5094923;28;20483;-54
2021/12/26 12:02:37;;;;;;;6.23;2.90;;;8.10;99.90;;;;;;5096770;28;20556;-52
2021/12/26 12:05:12;;;;;;;4.87;2.17;;;8.10;99.90;;;;;;5097866;28;20536;-50
2021/12/26 12:07:53;;;;;;;3.17;1.50;;;8.30;99.90;;;;;;5096709;28;20518;-52
2021/12/26 12:10:46;;;;;;;3.57;1.43;;;8.40;99.90;;;;;;5096397;28;20966;-54
2021/12/26 12:13:29;;;;;;;4.60;2.13;;;8.60;99.90;;;;;;5096771;28;20453;-52
2021/12/26 12:15:59;;;;;;;3.77;1.93;;;8.70;99.90;;;;;;5080232;28;20497;-52
2021/12/26 12:18:28;;;;;;;3.60;1.60;;;8.60;99.90;;;;;;5097557;28;20504;-53
2021/12/26 12:21:18;;;;;;;2.87;1.40;;;8.50;99.90;;;;;;5096894;28;20454;-55
2021/12/26 12:23:59;;;;;;;4.23;1.43;;;8.40;99.90;;;;;;5097442;28;20923;-53
2021/12/26 12:26:49;;;;;;;2.40;1.47;;;8.30;99.90;;;;;;5097286;28;20947;-53
2021/12/26 12:29:50;;;;;;;2.07;1.10;;;8.30;99.90;;;;;;5097459;28;20450;-53
2021/12/26 12:32:22;;;;;;;5.30;1.30;;;8.30;99.90;;;;;;5097736;28;20463;-53
2021/12/26 12:34:53;;;;;;;2.67;1.50;;;8.30;99.90;;;;;;5096763;28;20442;-54
2021/12/26 12:37:39;;;;;;;3.90;1.50;;;8.30;99.90;;;;;;5096871;28;20864;-55
2021/12/26 12:40:14;;;;;;;3.83;1.93;;;8.30;99.90;;;;;;5097169;28;20445;-53
2021/12/26 12:42:58;;;;;;;3.87;2.20;;;8.30;99.90;;;;;;5096772;28;20543;-54
2021/12/26 12:45:26;;;;;;;7.00;2.60;;;8.40;99.90;;;;;;5097260;28;20532;-55
2021/12/26 12:48:25;;;;;;;5.40;2.07;;;8.40;99.90;;;;;;5097275;28;20919;-55
2021/12/26 12:50:52;;;;;;;3.73;2.47;;;8.50;99.90;;;;;;5097200;28;20489;-54
2021/12/26 12:53:48;;;;;;;4.93;2.43;;;8.50;99.90;;;;;;5097483;28;20552;-54
2021/12/26 12:56:38;;;;;;;3.57;1.90;;;8.50;99.90;;;;;;5051044;28;20497;-52
2021/12/26 12:59:39;;;;;;;4.47;1.93;;;8.50;99.90;;;;;;5096780;28;20513;-53
2021/12/26 13:02:10;;;;;;;2.53;1.10;;;8.60;99.90;;;;;;5096852;28;20798;-53
2021/12/26 13:04:46;;;;;;;2.73;1.50;;;8.60;99.90;;;;;;5092850;28;20542;-50
2021/12/26 13:07:19;;;;;;;4.20;1.80;;;8.70;99.90;;;;;;5095280;28;20930;-53
2021/12/26 13:09:55;;;;;;;3.20;2.00;;;8.80;99.90;;;;;;5095293;28;20461;-53
2021/12/26 13:12:23;;;;;;;4.53;1.60;;;8.80;99.90;;;;;;5094249;28;20920;-54